WetterOnline ( https://www.wetteronline.de )

Wetter aktuell Osterwald

Aktuelles Wetter: Hohenpeißenberg (986m)

6-stündlich | Neueste Meldungen
Ortszeit Temperatur Wetter
Mi, 29.06. 20:00 18.3° C fast wolkenlos
Mi, 29.06. 14:00 19.4° C wolkig
Mi, 29.06. 8:00 14.9° C bedeckt
Mi, 29.06. 2:00 13.9° C Nebel
Di, 28.06. 20:00 14.8° C bedeckt
Di, 28.06. 14:00 16.1° C bewölkt
Di, 28.06. 8:00 13.7° C bedeckt
Di, 28.06. 2:00 12.8° C Nebel
Ortszeit Temperatur Wetter
Mi, 29.06. 21:00 18.1° C wolkenlos
Mi, 29.06. 20:50 18.1° C wolkenlos
Mi, 29.06. 20:40 18.2° C wolkenlos
Mi, 29.06. 20:30 18.4° C fast wolkenlos
Mi, 29.06. 20:20 18.4° C fast wolkenlos
Mi, 29.06. 20:10 18.4° C fast wolkenlos
Mi, 29.06. 20:00 18.3° C fast wolkenlos
Mi, 29.06. 19:30 18.9° C bewölkt
Mi, 29.06. 19:00 19.0° C bewölkt
Mi, 29.06. 18:30 19.4° C bewölkt
Mi, 29.06. 18:00 20.4° C bewölkt
Ortszeit Relative Feuchte Sichtweite
Mi, 29.06. 20:00 81% 40 km
Mi, 29.06. 14:00 71% 40 km
Mi, 29.06. 8:00 96% 5.0 km
Mi, 29.06. 2:00 98% 4.8 km
Di, 28.06. 20:00 94% 29 km
Di, 28.06. 14:00 85% 60 km
Di, 28.06. 8:00 93% 14 km
Di, 28.06. 2:00 99% 0.7 km
Ortszeit Relative Feuchte Sichtweite
Mi, 29.06. 21:00 77% 50 km
Mi, 29.06. 20:50 77% -
Mi, 29.06. 20:40 80% -
Mi, 29.06. 20:30 80% 45 km
Mi, 29.06. 20:20 80% -
Mi, 29.06. 20:10 80% -
Mi, 29.06. 20:00 81% 40 km
Mi, 29.06. 19:30 78% 55 km
Mi, 29.06. 19:00 80% 45 km
Mi, 29.06. 18:30 76% 65 km
Mi, 29.06. 18:00 70% 50 km
Ortszeit Niederschlagsmenge Niederschlagsart
Mi, 29.06. 20:00 0.1 l/m2 in 12 Std. Regen
Mi, 29.06. 14:00 0.1 l/m2 in 6 Std. Regen
Mi, 29.06. 8:00 0.1 l/m2 in 12 Std. Regen
Mi, 29.06. 2:00 0.1 l/m2 in 6 Std. Regen
Di, 28.06. 20:00 4 l/m2 in 12 Std. Regen
Di, 28.06. 14:00 0.0 l/m2 in 6 Std. -
Di, 28.06. 8:00 7 l/m2 in 12 Std. -
Di, 28.06. 2:00 7 l/m2 in 6 Std. Regen
Ortszeit Niederschlagsmenge Niederschlagsart
Mi, 29.06. 21:00 0.0 l/m2 in 1 Std. -
Mi, 29.06. 20:50 keine Meldung -
Mi, 29.06. 20:40 keine Meldung -
Mi, 29.06. 20:30 0.0 l/m2 in 1 Std. -
Mi, 29.06. 20:20 keine Meldung -
Mi, 29.06. 20:10 keine Meldung -
Mi, 29.06. 20:00 0.0 l/m2 in 1 Std. Regen
Mi, 29.06. 19:30 0.0 l/m2 in 1 Std. -
Mi, 29.06. 19:00 0.0 l/m2 in 1 Std. -
Mi, 29.06. 18:30 0.0 l/m2 in 1 Std. -
Mi, 29.06. 18:00 0.1 l/m2 in 1 Std. Regen
Ortszeit Stärke Spitze Richtung
km/h Bft. km/h Grad Sektor
Mi, 29.06. 20:00 9 2 28 160° S
Mi, 29.06. 14:00 11 2 32 320° NW
Mi, 29.06. 8:00 13 3 28 260° W
Mi, 29.06. 2:00 13 3 46 260° W
Di, 28.06. 20:00 33 5 46 140° SO
Di, 28.06. 14:00 4 1 29 80° O
Di, 28.06. 8:00 6 1 17 70° O
Di, 28.06. 2:00 9 2 63 310° NW
Ortszeit Stärke Spitze Richtung
km/h Bft. km/h Grad Sektor
Mi, 29.06. 21:00 7 2 11 160° S
Mi, 29.06. 20:50 7 2 - 160° S
Mi, 29.06. 20:40 7 2 - 160° S
Mi, 29.06. 20:30 7 2 11 160° S
Mi, 29.06. 20:20 7 2 - 160° S
Mi, 29.06. 20:10 9 2 - 160° S
Mi, 29.06. 20:00 9 2 17 160° S
Mi, 29.06. 19:30 9 2 17 170° S
Mi, 29.06. 19:00 9 2 17 170° S
Mi, 29.06. 18:30 7 2 14 160° S
Mi, 29.06. 18:00 2 1 11 360° N
Ortszeit Untergrenze Bedeckung Gattung
total tief tief mittel hoch
Mi, 29.06. 20:00 1500 m 1/8 1/8 - - -
Mi, 29.06. 14:00 540 m 7/8 4/8 - - -
Mi, 29.06. 8:00 30 m 8/8 8/8 - - -
Mi, 29.06. 2:00 <30 m 7/8 0/8 - - -
Di, 28.06. 20:00 3300 m 8/8 8/8 - - -
Di, 28.06. 14:00 570 m 7/8 7/8 - - -
Di, 28.06. 8:00 90 m 8/8 8/8 - - -
Di, 28.06. 2:00 30 m 6/8 6/8 - - -
Ortszeit Bedeckungsgrad in Achtel und Wolkenuntergrenze
Mi, 29.06. 21:00 keine Wolken
Mi, 29.06. 20:50 keine Wolken
Mi, 29.06. 20:40 keine Wolken
Mi, 29.06. 20:30 1(1290m)
Mi, 29.06. 20:20 1(1290m)
Mi, 29.06. 20:10 1
Mi, 29.06. 20:00 1(1500m)
Mi, 29.06. 19:30 1(1080m) 7(1800m)
Mi, 29.06. 19:00 3(930m) 4(1260m) 7(1500m)
Mi, 29.06. 18:30 4(870m) 7(1110m) 7(1470m)
Mi, 29.06. 18:00 2(810m) 6(1290m) 7(1470m)
Ortszeit Stationsdruck (hPa) Tendenz (hPa in 3 Std.)
Mi, 29.06. 20:00 903 - 1,0
Mi, 29.06. 14:00 904 0,0
Mi, 29.06. 8:00 904 + 0,3
Mi, 29.06. 2:00 905 - 0,3
Di, 28.06. 20:00 905 - 2,0
Di, 28.06. 14:00 908 - 1,4
Di, 28.06. 8:00 910 - 0,7
Di, 28.06. 2:00 910 - 0,5
Ortszeit Stationsdruck (hPa) Tendenz (hPa in 3 Std.)
Mi, 29.06. 21:00 903 - 0,4
Mi, 29.06. 20:50 903 keine Meldung
Mi, 29.06. 20:40 903 keine Meldung
Mi, 29.06. 20:30 903 - 0,8
Mi, 29.06. 20:20 903 keine Meldung
Mi, 29.06. 20:10 903 keine Meldung
Mi, 29.06. 20:00 903 - 1,0
Mi, 29.06. 19:30 904 - 0,8
Mi, 29.06. 19:00 904 - 0,7
Mi, 29.06. 18:30 904 - 0,6
Mi, 29.06. 18:00 904 - 0,5
Ortszeit Schneehöhe (cm)
Mi, 29.06. 20:00 0
Mi, 29.06. 14:00 0
Mi, 29.06. 8:00 0
Mi, 29.06. 2:00 0
Di, 28.06. 20:00 0
Di, 28.06. 14:00 0
Di, 28.06. 8:00 0
Di, 28.06. 2:00 0
Ortszeit Schneehöhe (cm)
Mi, 29.06. 21:00 0
Mi, 29.06. 20:50 0
Mi, 29.06. 20:40 0
Mi, 29.06. 20:30 0
Mi, 29.06. 20:20 0
Mi, 29.06. 20:10 0
Mi, 29.06. 20:00 0
Mi, 29.06. 19:30 0
Mi, 29.06. 19:00 0
Mi, 29.06. 18:30 0
Mi, 29.06. 18:00 0
Link zu dieser Seite / Seite empfehlen

Das Wetter in ...